sensor_id;sensor_type;location;lat;lon;timestamp;P1;durP1;ratioP1;P2;durP2;ratioP2
40198;SDS011;25906;43.536;26.068;2023-02-28T00:04:36;5.35;;;2.90;;
40198;SDS011;25906;43.536;26.068;2023-02-28T00:07:22;3.65;;;2.75;;
40198;SDS011;25906;43.536;26.068;2023-02-28T00:10:08;5.63;;;3.22;;
40198;SDS011;25906;43.536;26.068;2023-02-28T00:12:58;3.92;;;2.70;;
40198;SDS011;25906;43.536;26.068;2023-02-28T00:15:46;3.90;;;2.70;;
40198;SDS011;25906;43.536;26.068;2023-02-28T00:18:31;3.55;;;2.50;;
40198;SDS011;25906;43.536;26.068;2023-02-28T00:21:18;4.80;;;2.70;;
40198;SDS011;25906;43.536;26.068;2023-02-28T00:24:04;6.20;;;3.45;;
40198;SDS011;25906;43.536;26.068;2023-02-28T00:29:35;3.90;;;2.88;;
40198;SDS011;25906;43.536;26.068;2023-02-28T00:32:21;4.53;;;3.20;;
40198;SDS011;25906;43.536;26.068;2023-02-28T00:35:07;4.63;;;3.00;;
40198;SDS011;25906;43.536;26.068;2023-02-28T00:37:54;7.57;;;2.95;;
40198;SDS011;25906;43.536;26.068;2023-02-28T00:40:40;4.30;;;3.20;;
40198;SDS011;25906;43.536;26.068;2023-02-28T00:43:25;5.18;;;3.30;;
40198;SDS011;25906;43.536;26.068;2023-02-28T00:46:10;4.35;;;3.08;;
40198;SDS011;25906;43.536;26.068;2023-02-28T00:48:56;4.18;;;3.22;;
40198;SDS011;25906;43.536;26.068;2023-02-28T00:51:42;4.75;;;3.75;;
40198;SDS011;25906;43.536;26.068;2023-02-28T00:54:27;6.05;;;3.88;;
40198;SDS011;25906;43.536;26.068;2023-02-28T00:57:13;6.40;;;3.72;;
40198;SDS011;25906;43.536;26.068;2023-02-28T00:59:58;6.43;;;4.15;;
40198;SDS011;25906;43.536;26.068;2023-02-28T01:02:44;7.65;;;4.65;;
40198;SDS011;25906;43.536;26.068;2023-02-28T01:05:29;6.50;;;3.95;;
40198;SDS011;25906;43.536;26.068;2023-02-28T01:08:15;6.80;;;4.32;;
40198;SDS011;25906;43.536;26.068;2023-02-28T01:11:07;5.88;;;4.60;;
40198;SDS011;25906;43.536;26.068;2023-02-28T01:13:54;5.72;;;3.63;;
40198;SDS011;25906;43.536;26.068;2023-02-28T01:16:40;5.88;;;3.92;;
40198;SDS011;25906;43.536;26.068;2023-02-28T01:19:26;6.47;;;4.50;;
40198;SDS011;25906;43.536;26.068;2023-02-28T01:22:11;6.72;;;4.43;;
40198;SDS011;25906;43.536;26.068;2023-02-28T01:24:57;6.43;;;4.65;;
40198;SDS011;25906;43.536;26.068;2023-02-28T01:27:42;4.53;;;3.80;;
40198;SDS011;25906;43.536;26.068;2023-02-28T01:30:27;9.63;;;4.43;;
40198;SDS011;25906;43.536;26.068;2023-02-28T01:33:13;7.70;;;4.10;;
40198;SDS011;25906;43.536;26.068;2023-02-28T01:35:59;5.53;;;3.75;;
40198;SDS011;25906;43.536;26.068;2023-02-28T01:38:46;5.03;;;3.58;;
40198;SDS011;25906;43.536;26.068;2023-02-28T01:41:33;4.43;;;3.17;;
40198;SDS011;25906;43.536;26.068;2023-02-28T01:47:44;3.75;;;3.33;;
40198;SDS011;25906;43.536;26.068;2023-02-28T01:50:34;5.40;;;3.70;;
40198;SDS011;25906;43.536;26.068;2023-02-28T01:53:24;5.65;;;3.80;;
40198;SDS011;25906;43.536;26.068;2023-02-28T01:56:17;5.85;;;3.60;;
40198;SDS011;25906;43.536;26.068;2023-02-28T01:59:08;4.50;;;3.35;;
40198;SDS011;25906;43.536;26.068;2023-02-28T02:01:55;5.32;;;3.42;;
40198;SDS011;25906;43.536;26.068;2023-02-28T02:04:41;5.95;;;3.58;;
40198;SDS011;25906;43.536;26.068;2023-02-28T02:07:47;5.75;;;3.72;;
40198;SDS011;25906;43.536;26.068;2023-02-28T02:10:39;4.43;;;3.40;;
40198;SDS011;25906;43.536;26.068;2023-02-28T02:13:34;4.22;;;3.22;;
40198;SDS011;25906;43.536;26.068;2023-02-28T02:25:39;6.82;;;4.10;;
40198;SDS011;25906;43.536;26.068;2023-02-28T02:32:05;5.25;;;4.07;;
40198;SDS011;25906;43.536;26.068;2023-02-28T02:41:13;7.35;;;4.70;;
40198;SDS011;25906;43.536;26.068;2023-02-28T02:44:07;8.13;;;5.22;;
40198;SDS011;25906;43.536;26.068;2023-02-28T02:47:00;8.68;;;5.60;;
40198;SDS011;25906;43.536;26.068;2023-02-28T02:49:52;9.60;;;6.05;;
40198;SDS011;25906;43.536;26.068;2023-02-28T02:52:42;9.25;;;6.22;;
40198;SDS011;25906;43.536;26.068;2023-02-28T02:55:31;9.82;;;6.78;;
40198;SDS011;25906;43.536;26.068;2023-02-28T02:58:22;11.90;;;6.95;;
40198;SDS011;25906;43.536;26.068;2023-02-28T03:01:12;12.82;;;7.57;;
40198;SDS011;25906;43.536;26.068;2023-02-28T03:04:06;12.52;;;7.88;;
40198;SDS011;25906;43.536;26.068;2023-02-28T03:06:54;11.57;;;7.32;;
40198;SDS011;25906;43.536;26.068;2023-02-28T03:12:40;10.13;;;6.95;;
40198;SDS011;25906;43.536;26.068;2023-02-28T03:15:34;14.93;;;7.40;;
40198;SDS011;25906;43.536;26.068;2023-02-28T03:18:32;11.10;;;7.47;;
40198;SDS011;25906;43.536;26.068;2023-02-28T03:21:56;11.88;;;7.07;;
40198;SDS011;25906;43.536;26.068;2023-02-28T03:24:56;11.32;;;7.65;;
40198;SDS011;25906;43.536;26.068;2023-02-28T03:30:55;11.57;;;7.47;;
40198;SDS011;25906;43.536;26.068;2023-02-28T03:33:47;12.43;;;8.20;;
40198;SDS011;25906;43.536;26.068;2023-02-28T03:36:45;14.68;;;8.00;;
40198;SDS011;25906;43.536;26.068;2023-02-28T03:39:55;14.45;;;8.30;;
40198;SDS011;25906;43.536;26.068;2023-02-28T03:42:46;13.48;;;8.20;;
40198;SDS011;25906;43.536;26.068;2023-02-28T03:45:36;10.82;;;7.63;;
40198;SDS011;25906;43.536;26.068;2023-02-28T03:48:30;15.18;;;8.43;;
40198;SDS011;25906;43.536;26.068;2023-02-28T03:51:21;12.18;;;7.88;;
40198;SDS011;25906;43.536;26.068;2023-02-28T03:54:10;13.85;;;8.05;;
40198;SDS011;25906;43.536;26.068;2023-02-28T03:57:34;12.98;;;8.00;;
40198;SDS011;25906;43.536;26.068;2023-02-28T04:03:09;15.68;;;8.50;;
40198;SDS011;25906;43.536;26.068;2023-02-28T04:05:55;17.30;;;8.57;;
40198;SDS011;25906;43.536;26.068;2023-02-28T04:08:42;17.35;;;9.07;;
40198;SDS011;25906;43.536;26.068;2023-02-28T04:14:30;16.55;;;9.20;;
40198;SDS011;25906;43.536;26.068;2023-02-28T04:17:16;16.20;;;9.10;;
40198;SDS011;25906;43.536;26.068;2023-02-28T04:20:01;17.63;;;9.15;;
40198;SDS011;25906;43.536;26.068;2023-02-28T04:22:50;14.15;;;8.15;;
40198;SDS011;25906;43.536;26.068;2023-02-28T04:25:35;14.73;;;9.07;;
40198;SDS011;25906;43.536;26.068;2023-02-28T04:28:21;16.45;;;8.57;;
40198;SDS011;25906;43.536;26.068;2023-02-28T04:31:06;14.75;;;8.00;;
40198;SDS011;25906;43.536;26.068;2023-02-28T04:33:52;14.55;;;8.60;;
40198;SDS011;25906;43.536;26.068;2023-02-28T04:36:37;13.85;;;8.32;;
40198;SDS011;25906;43.536;26.068;2023-02-28T04:39:24;13.27;;;7.70;;
40198;SDS011;25906;43.536;26.068;2023-02-28T04:42:10;16.55;;;8.65;;
40198;SDS011;25906;43.536;26.068;2023-02-28T04:44:56;14.13;;;8.48;;
40198;SDS011;25906;43.536;26.068;2023-02-28T04:47:42;19.92;;;9.20;;
40198;SDS011;25906;43.536;26.068;2023-02-28T04:50:27;12.40;;;7.25;;
40198;SDS011;25906;43.536;26.068;2023-02-28T04:53:12;11.95;;;7.28;;
40198;SDS011;25906;43.536;26.068;2023-02-28T04:55:58;15.00;;;8.38;;
40198;SDS011;25906;43.536;26.068;2023-02-28T04:58:44;14.93;;;9.70;;
40198;SDS011;25906;43.536;26.068;2023-02-28T05:04:17;14.25;;;8.68;;
40198;SDS011;25906;43.536;26.068;2023-02-28T05:09:48;12.73;;;7.70;;
40198;SDS011;25906;43.536;26.068;2023-02-28T05:12:34;11.32;;;7.15;;
40198;SDS011;25906;43.536;26.068;2023-02-28T05:15:19;13.45;;;8.82;;
40198;SDS011;25906;43.536;26.068;2023-02-28T05:18:05;11.70;;;7.20;;
40198;SDS011;25906;43.536;26.068;2023-02-28T05:20:50;13.57;;;8.60;;
40198;SDS011;25906;43.536;26.068;2023-02-28T05:23:36;11.95;;;7.53;;
40198;SDS011;25906;43.536;26.068;2023-02-28T05:26:22;10.50;;;7.15;;
40198;SDS011;25906;43.536;26.068;2023-02-28T05:29:07;12.50;;;7.43;;
40198;SDS011;25906;43.536;26.068;2023-02-28T05:31:54;10.90;;;7.05;;
40198;SDS011;25906;43.536;26.068;2023-02-28T05:34:39;12.98;;;7.80;;
40198;SDS011;25906;43.536;26.068;2023-02-28T05:37:25;11.80;;;7.05;;
40198;SDS011;25906;43.536;26.068;2023-02-28T05:40:11;12.48;;;7.28;;
40198;SDS011;25906;43.536;26.068;2023-02-28T05:42:57;13.38;;;8.00;;
40198;SDS011;25906;43.536;26.068;2023-02-28T05:45:42;12.38;;;7.40;;
40198;SDS011;25906;43.536;26.068;2023-02-28T05:48:28;12.63;;;7.47;;
40198;SDS011;25906;43.536;26.068;2023-02-28T05:51:13;11.90;;;7.80;;
40198;SDS011;25906;43.536;26.068;2023-02-28T05:54:00;12.50;;;8.10;;
40198;SDS011;25906;43.536;26.068;2023-02-28T05:56:46;18.02;;;9.90;;
40198;SDS011;25906;43.536;26.068;2023-02-28T05:59:31;13.32;;;8.73;;
40198;SDS011;25906;43.536;26.068;2023-02-28T06:02:17;12.23;;;7.75;;
40198;SDS011;25906;43.536;26.068;2023-02-28T06:07:48;12.52;;;7.15;;
40198;SDS011;25906;43.536;26.068;2023-02-28T06:10:34;12.77;;;7.57;;
40198;SDS011;25906;43.536;26.068;2023-02-28T06:13:20;14.43;;;7.72;;
40198;SDS011;25906;43.536;26.068;2023-02-28T06:16:06;13.77;;;8.40;;
40198;SDS011;25906;43.536;26.068;2023-02-28T06:18:52;14.88;;;8.07;;
40198;SDS011;25906;43.536;26.068;2023-02-28T06:21:40;13.10;;;7.13;;
40198;SDS011;25906;43.536;26.068;2023-02-28T06:27:15;9.82;;;6.70;;
40198;SDS011;25906;43.536;26.068;2023-02-28T06:30:01;10.90;;;6.53;;
40198;SDS011;25906;43.536;26.068;2023-02-28T06:32:47;11.90;;;7.10;;
40198;SDS011;25906;43.536;26.068;2023-02-28T06:35:34;13.30;;;7.55;;
40198;SDS011;25906;43.536;26.068;2023-02-28T06:38:20;12.60;;;7.30;;
40198;SDS011;25906;43.536;26.068;2023-02-28T06:41:05;12.75;;;7.60;;
40198;SDS011;25906;43.536;26.068;2023-02-28T06:43:52;11.02;;;7.30;;
40198;SDS011;25906;43.536;26.068;2023-02-28T06:46:38;9.65;;;6.43;;
40198;SDS011;25906;43.536;26.068;2023-02-28T06:49:25;10.68;;;7.38;;
40198;SDS011;25906;43.536;26.068;2023-02-28T06:52:11;12.07;;;7.40;;
40198;SDS011;25906;43.536;26.068;2023-02-28T06:54:56;10.80;;;7.05;;
40198;SDS011;25906;43.536;26.068;2023-02-28T06:57:45;12.77;;;7.65;;
40198;SDS011;25906;43.536;26.068;2023-02-28T07:00:30;9.43;;;6.38;;
40198;SDS011;25906;43.536;26.068;2023-02-28T07:03:16;11.13;;;6.93;;
40198;SDS011;25906;43.536;26.068;2023-02-28T07:06:02;10.05;;;5.97;;
40198;SDS011;25906;43.536;26.068;2023-02-28T07:08:49;12.00;;;7.35;;
40198;SDS011;25906;43.536;26.068;2023-02-28T07:11:36;10.52;;;6.70;;
40198;SDS011;25906;43.536;26.068;2023-02-28T07:14:22;10.90;;;7.07;;
40198;SDS011;25906;43.536;26.068;2023-02-28T07:17:08;13.50;;;7.25;;
40198;SDS011;25906;43.536;26.068;2023-02-28T07:19:54;16.60;;;7.38;;
40198;SDS011;25906;43.536;26.068;2023-02-28T07:22:39;10.73;;;6.72;;
40198;SDS011;25906;43.536;26.068;2023-02-28T07:25:26;14.57;;;6.90;;
40198;SDS011;25906;43.536;26.068;2023-02-28T07:28:12;11.85;;;6.90;;
40198;SDS011;25906;43.536;26.068;2023-02-28T07:31:05;10.98;;;6.90;;
40198;SDS011;25906;43.536;26.068;2023-02-28T07:33:52;12.23;;;7.38;;
40198;SDS011;25906;43.536;26.068;2023-02-28T07:36:38;14.35;;;7.88;;
40198;SDS011;25906;43.536;26.068;2023-02-28T07:39:23;13.35;;;7.43;;
40198;SDS011;25906;43.536;26.068;2023-02-28T07:42:09;10.48;;;7.35;;
40198;SDS011;25906;43.536;26.068;2023-02-28T07:44:56;11.98;;;7.22;;
40198;SDS011;25906;43.536;26.068;2023-02-28T07:47:42;12.98;;;7.90;;
40198;SDS011;25906;43.536;26.068;2023-02-28T07:53:15;11.52;;;6.78;;
40198;SDS011;25906;43.536;26.068;2023-02-28T07:56:01;14.65;;;7.75;;
40198;SDS011;25906;43.536;26.068;2023-02-28T07:58:47;10.00;;;6.68;;
40198;SDS011;25906;43.536;26.068;2023-02-28T08:01:33;11.50;;;6.50;;
40198;SDS011;25906;43.536;26.068;2023-02-28T08:04:18;12.07;;;7.45;;
40198;SDS011;25906;43.536;26.068;2023-02-28T08:07:04;11.43;;;7.30;;
40198;SDS011;25906;43.536;26.068;2023-02-28T08:09:49;14.93;;;8.48;;
40198;SDS011;25906;43.536;26.068;2023-02-28T08:15:21;12.20;;;7.72;;
40198;SDS011;25906;43.536;26.068;2023-02-28T08:18:06;13.05;;;8.15;;
40198;SDS011;25906;43.536;26.068;2023-02-28T08:20:52;16.15;;;8.52;;
40198;SDS011;25906;43.536;26.068;2023-02-28T08:23:37;13.10;;;7.65;;
40198;SDS011;25906;43.536;26.068;2023-02-28T08:29:09;13.25;;;7.47;;
40198;SDS011;25906;43.536;26.068;2023-02-28T08:34:40;12.52;;;8.30;;
40198;SDS011;25906;43.536;26.068;2023-02-28T08:37:25;14.07;;;7.90;;
40198;SDS011;25906;43.536;26.068;2023-02-28T08:40:11;12.73;;;8.10;;
40198;SDS011;25906;43.536;26.068;2023-02-28T08:43:03;14.27;;;7.72;;
40198;SDS011;25906;43.536;26.068;2023-02-28T08:45:50;15.27;;;8.18;;
40198;SDS011;25906;43.536;26.068;2023-02-28T08:48:36;14.48;;;8.65;;
40198;SDS011;25906;43.536;26.068;2023-02-28T08:51:25;12.23;;;7.07;;
40198;SDS011;25906;43.536;26.068;2023-02-28T08:54:11;12.02;;;7.82;;
40198;SDS011;25906;43.536;26.068;2023-02-28T08:57:04;19.30;;;9.90;;
40198;SDS011;25906;43.536;26.068;2023-02-28T08:59:49;28.58;;;13.60;;
40198;SDS011;25906;43.536;26.068;2023-02-28T09:02:35;13.60;;;7.90;;
40198;SDS011;25906;43.536;26.068;2023-02-28T09:05:22;13.25;;;7.60;;
40198;SDS011;25906;43.536;26.068;2023-02-28T09:10:53;15.52;;;8.75;;
40198;SDS011;25906;43.536;26.068;2023-02-28T09:13:41;15.02;;;8.77;;
40198;SDS011;25906;43.536;26.068;2023-02-28T09:16:27;14.27;;;8.88;;
40198;SDS011;25906;43.536;26.068;2023-02-28T09:19:12;13.57;;;8.48;;
40198;SDS011;25906;43.536;26.068;2023-02-28T09:21:58;13.98;;;8.60;;
40198;SDS011;25906;43.536;26.068;2023-02-28T09:24:44;13.88;;;8.10;;
40198;SDS011;25906;43.536;26.068;2023-02-28T09:30:15;15.00;;;8.80;;
40198;SDS011;25906;43.536;26.068;2023-02-28T09:33:01;16.15;;;8.88;;
40198;SDS011;25906;43.536;26.068;2023-02-28T09:35:47;14.48;;;8.82;;
40198;SDS011;25906;43.536;26.068;2023-02-28T09:38:33;19.40;;;9.35;;
40198;SDS011;25906;43.536;26.068;2023-02-28T09:44:06;13.88;;;8.18;;
40198;SDS011;25906;43.536;26.068;2023-02-28T09:47:05;15.52;;;9.13;;
40198;SDS011;25906;43.536;26.068;2023-02-28T09:50:44;16.50;;;9.40;;
40198;SDS011;25906;43.536;26.068;2023-02-28T09:53:33;15.38;;;9.18;;
40198;SDS011;25906;43.536;26.068;2023-02-28T10:08:27;15.63;;;9.02;;
40198;SDS011;25906;43.536;26.068;2023-02-28T10:11:17;14.50;;;8.20;;
40198;SDS011;25906;43.536;26.068;2023-02-28T10:14:16;14.35;;;8.68;;
40198;SDS011;25906;43.536;26.068;2023-02-28T10:17:17;13.60;;;7.93;;
40198;SDS011;25906;43.536;26.068;2023-02-28T10:20:09;16.45;;;8.85;;
40198;SDS011;25906;43.536;26.068;2023-02-28T10:29:13;14.75;;;8.70;;
40198;SDS011;25906;43.536;26.068;2023-02-28T10:31:58;12.45;;;7.88;;
40198;SDS011;25906;43.536;26.068;2023-02-28T10:35:00;14.68;;;8.52;;
40198;SDS011;25906;43.536;26.068;2023-02-28T10:37:56;13.55;;;8.35;;
40198;SDS011;25906;43.536;26.068;2023-02-28T10:40:43;17.50;;;9.75;;
40198;SDS011;25906;43.536;26.068;2023-02-28T10:43:29;14.32;;;8.85;;
40198;SDS011;25906;43.536;26.068;2023-02-28T10:46:15;13.57;;;8.35;;
40198;SDS011;25906;43.536;26.068;2023-02-28T10:49:20;14.05;;;8.48;;
40198;SDS011;25906;43.536;26.068;2023-02-28T10:52:08;13.45;;;8.25;;
40198;SDS011;25906;43.536;26.068;2023-02-28T10:54:56;17.30;;;9.85;;
40198;SDS011;25906;43.536;26.068;2023-02-28T10:58:00;15.80;;;9.93;;
40198;SDS011;25906;43.536;26.068;2023-02-28T11:00:45;15.60;;;9.27;;
40198;SDS011;25906;43.536;26.068;2023-02-28T11:03:34;17.30;;;9.85;;
40198;SDS011;25906;43.536;26.068;2023-02-28T11:06:30;17.23;;;9.25;;
40198;SDS011;25906;43.536;26.068;2023-02-28T11:09:20;16.77;;;9.25;;
40198;SDS011;25906;43.536;26.068;2023-02-28T11:12:20;14.60;;;8.80;;
40198;SDS011;25906;43.536;26.068;2023-02-28T11:20:57;17.02;;;9.50;;
40198;SDS011;25906;43.536;26.068;2023-02-28T11:23:44;14.85;;;8.82;;
40198;SDS011;25906;43.536;26.068;2023-02-28T11:29:24;15.18;;;8.77;;
40198;SDS011;25906;43.536;26.068;2023-02-28T11:32:19;18.33;;;9.90;;
40198;SDS011;25906;43.536;26.068;2023-02-28T11:37:54;18.25;;;9.68;;
40198;SDS011;25906;43.536;26.068;2023-02-28T11:40:48;19.70;;;10.77;;
40198;SDS011;25906;43.536;26.068;2023-02-28T11:47:30;22.52;;;11.20;;
40198;SDS011;25906;43.536;26.068;2023-02-28T12:02:28;23.70;;;12.30;;
40198;SDS011;25906;43.536;26.068;2023-02-28T12:08:30;24.35;;;11.93;;
40198;SDS011;25906;43.536;26.068;2023-02-28T12:20:41;25.63;;;12.65;;
40198;SDS011;25906;43.536;26.068;2023-02-28T12:26:43;23.02;;;11.93;;
40198;SDS011;25906;43.536;26.068;2023-02-28T12:29:30;24.17;;;12.25;;
40198;SDS011;25906;43.536;26.068;2023-02-28T12:32:22;23.17;;;12.93;;
40198;SDS011;25906;43.536;26.068;2023-02-28T12:35:13;28.73;;;13.80;;
40198;SDS011;25906;43.536;26.068;2023-02-28T12:38:04;28.70;;;13.73;;
40198;SDS011;25906;43.536;26.068;2023-02-28T12:41:56;26.25;;;13.05;;
40198;SDS011;25906;43.536;26.068;2023-02-28T12:44:30;30.40;;;14.10;;
40198;SDS011;25906;43.536;26.068;2023-02-28T12:47:19;31.35;;;14.93;;
40198;SDS011;25906;43.536;26.068;2023-02-28T12:50:10;27.42;;;14.57;;
40198;SDS011;25906;43.536;26.068;2023-02-28T12:53:01;34.85;;;16.40;;
40198;SDS011;25906;43.536;26.068;2023-02-28T12:55:57;31.83;;;15.38;;
40198;SDS011;25906;43.536;26.068;2023-02-28T12:58:48;26.98;;;13.82;;
40198;SDS011;25906;43.536;26.068;2023-02-28T13:01:47;32.80;;;16.00;;
40198;SDS011;25906;43.536;26.068;2023-02-28T13:10:44;35.58;;;16.88;;
40198;SDS011;25906;43.536;26.068;2023-02-28T13:13:32;34.38;;;16.23;;
40198;SDS011;25906;43.536;26.068;2023-02-28T13:16:18;33.92;;;15.20;;
40198;SDS011;25906;43.536;26.068;2023-02-28T13:19:10;30.88;;;15.38;;
40198;SDS011;25906;43.536;26.068;2023-02-28T13:21:56;40.83;;;16.52;;
40198;SDS011;25906;43.536;26.068;2023-02-28T13:24:50;35.08;;;15.85;;
40198;SDS011;25906;43.536;26.068;2023-02-28T13:27:40;35.15;;;15.00;;
40198;SDS011;25906;43.536;26.068;2023-02-28T13:36:33;30.25;;;15.23;;
40198;SDS011;25906;43.536;26.068;2023-02-28T13:45:20;32.63;;;14.70;;
40198;SDS011;25906;43.536;26.068;2023-02-28T13:48:15;29.40;;;14.35;;
40198;SDS011;25906;43.536;26.068;2023-02-28T13:54:31;27.30;;;13.35;;
40198;SDS011;25906;43.536;26.068;2023-02-28T14:07:21;20.88;;;11.88;;
40198;SDS011;25906;43.536;26.068;2023-02-28T14:10:27;24.02;;;12.65;;
40198;SDS011;25906;43.536;26.068;2023-02-28T14:16:45;22.05;;;11.93;;
40198;SDS011;25906;43.536;26.068;2023-02-28T14:19:32;23.25;;;12.30;;
40198;SDS011;25906;43.536;26.068;2023-02-28T14:25:33;32.10;;;11.80;;
40198;SDS011;25906;43.536;26.068;2023-02-28T14:31:36;27.40;;;12.02;;
40198;SDS011;25906;43.536;26.068;2023-02-28T14:37:47;19.95;;;10.55;;
40198;SDS011;25906;43.536;26.068;2023-02-28T14:40:34;24.42;;;11.40;;
40198;SDS011;25906;43.536;26.068;2023-02-28T14:43:24;21.75;;;10.68;;
40198;SDS011;25906;43.536;26.068;2023-02-28T14:46:11;20.20;;;10.48;;
40198;SDS011;25906;43.536;26.068;2023-02-28T14:48:58;21.20;;;10.60;;
40198;SDS011;25906;43.536;26.068;2023-02-28T14:51:43;23.45;;;12.25;;
40198;SDS011;25906;43.536;26.068;2023-02-28T14:54:29;23.20;;;11.15;;
40198;SDS011;25906;43.536;26.068;2023-02-28T14:57:25;26.92;;;13.60;;
40198;SDS011;25906;43.536;26.068;2023-02-28T15:00:22;27.02;;;12.65;;
40198;SDS011;25906;43.536;26.068;2023-02-28T15:03:50;28.88;;;14.75;;
40198;SDS011;25906;43.536;26.068;2023-02-28T15:06:29;26.80;;;14.02;;
40198;SDS011;25906;43.536;26.068;2023-02-28T15:09:16;19.25;;;11.48;;
40198;SDS011;25906;43.536;26.068;2023-02-28T15:12:03;22.95;;;10.98;;
40198;SDS011;25906;43.536;26.068;2023-02-28T15:14:49;20.40;;;10.15;;
40198;SDS011;25906;43.536;26.068;2023-02-28T15:17:34;21.52;;;11.13;;
40198;SDS011;25906;43.536;26.068;2023-02-28T15:23:06;31.27;;;12.30;;
40198;SDS011;25906;43.536;26.068;2023-02-28T15:25:51;29.08;;;14.45;;
40198;SDS011;25906;43.536;26.068;2023-02-28T15:28:38;33.70;;;15.48;;
40198;SDS011;25906;43.536;26.068;2023-02-28T15:31:34;36.55;;;15.82;;
40198;SDS011;25906;43.536;26.068;2023-02-28T15:34:22;31.05;;;14.85;;
40198;SDS011;25906;43.536;26.068;2023-02-28T15:43:16;25.73;;;12.90;;
40198;SDS011;25906;43.536;26.068;2023-02-28T15:46:11;26.88;;;12.88;;
40198;SDS011;25906;43.536;26.068;2023-02-28T15:48:59;25.88;;;12.35;;
40198;SDS011;25906;43.536;26.068;2023-02-28T15:51:44;24.77;;;13.45;;
40198;SDS011;25906;43.536;26.068;2023-02-28T15:54:32;28.45;;;12.77;;
40198;SDS011;25906;43.536;26.068;2023-02-28T15:57:25;25.23;;;12.50;;
40198;SDS011;25906;43.536;26.068;2023-02-28T16:00:14;28.83;;;12.27;;
40198;SDS011;25906;43.536;26.068;2023-02-28T16:03:01;25.63;;;11.55;;
40198;SDS011;25906;43.536;26.068;2023-02-28T16:06:08;23.42;;;12.18;;
40198;SDS011;25906;43.536;26.068;2023-02-28T16:09:29;28.77;;;12.68;;
40198;SDS011;25906;43.536;26.068;2023-02-28T16:12:16;25.50;;;11.50;;
40198;SDS011;25906;43.536;26.068;2023-02-28T16:15:03;25.88;;;11.95;;
40198;SDS011;25906;43.536;26.068;2023-02-28T16:17:53;25.35;;;11.60;;
40198;SDS011;25906;43.536;26.068;2023-02-28T16:20:40;19.95;;;10.82;;
40198;SDS011;25906;43.536;26.068;2023-02-28T16:23:25;21.55;;;10.25;;
40198;SDS011;25906;43.536;26.068;2023-02-28T16:26:16;19.65;;;10.10;;
40198;SDS011;25906;43.536;26.068;2023-02-28T16:29:05;22.65;;;10.45;;
40198;SDS011;25906;43.536;26.068;2023-02-28T16:31:52;19.63;;;10.95;;
40198;SDS011;25906;43.536;26.068;2023-02-28T16:34:38;23.20;;;10.35;;
40198;SDS011;25906;43.536;26.068;2023-02-28T16:37:23;21.13;;;10.07;;
40198;SDS011;25906;43.536;26.068;2023-02-28T16:40:19;21.73;;;9.43;;
40198;SDS011;25906;43.536;26.068;2023-02-28T16:43:13;18.27;;;9.70;;
40198;SDS011;25906;43.536;26.068;2023-02-28T16:46:01;20.45;;;10.13;;
40198;SDS011;25906;43.536;26.068;2023-02-28T16:48:48;19.08;;;10.02;;
40198;SDS011;25906;43.536;26.068;2023-02-28T16:51:36;16.70;;;8.63;;
40198;SDS011;25906;43.536;26.068;2023-02-28T16:54:21;22.23;;;10.32;;
40198;SDS011;25906;43.536;26.068;2023-02-28T16:57:15;21.50;;;10.23;;
40198;SDS011;25906;43.536;26.068;2023-02-28T17:00:05;16.63;;;8.02;;
40198;SDS011;25906;43.536;26.068;2023-02-28T17:02:53;18.67;;;8.80;;
40198;SDS011;25906;43.536;26.068;2023-02-28T17:05:39;17.38;;;9.82;;
40198;SDS011;25906;43.536;26.068;2023-02-28T17:08:24;19.83;;;10.10;;
40198;SDS011;25906;43.536;26.068;2023-02-28T17:11:11;16.92;;;9.20;;
40198;SDS011;25906;43.536;26.068;2023-02-28T17:13:57;20.83;;;9.50;;
40198;SDS011;25906;43.536;26.068;2023-02-28T17:16:42;25.15;;;10.30;;
40198;SDS011;25906;43.536;26.068;2023-02-28T17:19:28;20.60;;;9.75;;
40198;SDS011;25906;43.536;26.068;2023-02-28T17:22:13;27.30;;;10.93;;
40198;SDS011;25906;43.536;26.068;2023-02-28T17:24:59;21.50;;;10.18;;
40198;SDS011;25906;43.536;26.068;2023-02-28T17:27:44;21.60;;;10.80;;
40198;SDS011;25906;43.536;26.068;2023-02-28T17:30:30;22.75;;;9.63;;
40198;SDS011;25906;43.536;26.068;2023-02-28T17:33:18;19.83;;;9.32;;
40198;SDS011;25906;43.536;26.068;2023-02-28T17:36:04;19.17;;;9.40;;
40198;SDS011;25906;43.536;26.068;2023-02-28T17:41:35;18.85;;;9.73;;
40198;SDS011;25906;43.536;26.068;2023-02-28T17:44:20;16.50;;;9.32;;
40198;SDS011;25906;43.536;26.068;2023-02-28T17:47:08;18.88;;;9.38;;
40198;SDS011;25906;43.536;26.068;2023-02-28T17:49:56;20.27;;;9.85;;
40198;SDS011;25906;43.536;26.068;2023-02-28T17:52:42;22.42;;;10.02;;
40198;SDS011;25906;43.536;26.068;2023-02-28T17:55:27;26.10;;;10.68;;
40198;SDS011;25906;43.536;26.068;2023-02-28T17:58:13;25.45;;;10.70;;
40198;SDS011;25906;43.536;26.068;2023-02-28T18:00:58;21.92;;;10.35;;
40198;SDS011;25906;43.536;26.068;2023-02-28T18:09:34;21.30;;;10.55;;
40198;SDS011;25906;43.536;26.068;2023-02-28T18:12:20;21.75;;;10.93;;
40198;SDS011;25906;43.536;26.068;2023-02-28T18:15:05;27.30;;;10.57;;
40198;SDS011;25906;43.536;26.068;2023-02-28T18:20:36;26.02;;;11.50;;
40198;SDS011;25906;43.536;26.068;2023-02-28T18:23:21;22.83;;;10.60;;
40198;SDS011;25906;43.536;26.068;2023-02-28T18:26:07;18.15;;;10.45;;
40198;SDS011;25906;43.536;26.068;2023-02-28T18:28:53;19.50;;;10.18;;
40198;SDS011;25906;43.536;26.068;2023-02-28T18:31:38;19.02;;;10.23;;
40198;SDS011;25906;43.536;26.068;2023-02-28T18:34:24;18.83;;;9.95;;
40198;SDS011;25906;43.536;26.068;2023-02-28T18:37:10;15.27;;;9.18;;
40198;SDS011;25906;43.536;26.068;2023-02-28T18:42:41;25.05;;;12.02;;
40198;SDS011;25906;43.536;26.068;2023-02-28T18:45:26;26.20;;;13.55;;
40198;SDS011;25906;43.536;26.068;2023-02-28T18:48:12;24.73;;;11.65;;
40198;SDS011;25906;43.536;26.068;2023-02-28T18:51:04;22.98;;;12.98;;
40198;SDS011;25906;43.536;26.068;2023-02-28T18:54:00;25.85;;;12.27;;
40198;SDS011;25906;43.536;26.068;2023-02-28T18:56:45;17.35;;;10.60;;
40198;SDS011;25906;43.536;26.068;2023-02-28T18:59:31;19.30;;;10.57;;
40198;SDS011;25906;43.536;26.068;2023-02-28T19:02:16;24.65;;;12.05;;
40198;SDS011;25906;43.536;26.068;2023-02-28T19:05:02;19.55;;;10.15;;
40198;SDS011;25906;43.536;26.068;2023-02-28T19:07:47;20.13;;;10.23;;
40198;SDS011;25906;43.536;26.068;2023-02-28T19:10:33;19.42;;;10.55;;
40198;SDS011;25906;43.536;26.068;2023-02-28T19:13:18;21.83;;;10.15;;
40198;SDS011;25906;43.536;26.068;2023-02-28T19:16:05;20.17;;;10.63;;
40198;SDS011;25906;43.536;26.068;2023-02-28T19:18:51;17.83;;;10.57;;
40198;SDS011;25906;43.536;26.068;2023-02-28T19:21:37;20.92;;;9.93;;
40198;SDS011;25906;43.536;26.068;2023-02-28T19:24:22;16.15;;;9.38;;
40198;SDS011;25906;43.536;26.068;2023-02-28T19:27:07;15.98;;;8.40;;
40198;SDS011;25906;43.536;26.068;2023-02-28T19:29:53;15.23;;;8.40;;
40198;SDS011;25906;43.536;26.068;2023-02-28T19:32:39;15.90;;;7.95;;
40198;SDS011;25906;43.536;26.068;2023-02-28T19:35:24;21.38;;;8.65;;
40198;SDS011;25906;43.536;26.068;2023-02-28T19:38:10;15.27;;;8.70;;
40198;SDS011;25906;43.536;26.068;2023-02-28T19:40:59;16.98;;;8.70;;
40198;SDS011;25906;43.536;26.068;2023-02-28T19:43:48;16.13;;;8.60;;